createdAt,value
2017-12-25T00:01:27.016Z,6.2
2017-12-25T00:11:28.358Z,6.6
2017-12-25T00:21:31.624Z,7.3
2017-12-25T00:31:43.721Z,6.1
2017-12-25T00:41:33.218Z,5.7
2017-12-25T00:51:26.107Z,6.2
2017-12-25T01:01:28.480Z,4.8
2017-12-25T01:11:26.915Z,5.8
2017-12-25T01:21:35.020Z,5.0
2017-12-25T01:31:26.571Z,4.8
2017-12-25T01:41:26.282Z,5.1
2017-12-25T01:51:25.778Z,5.1
2017-12-25T02:01:26.371Z,4.2
2017-12-25T02:11:33.108Z,5.3
2017-12-25T02:21:28.430Z,4.6
2017-12-25T02:31:28.394Z,6.2
2017-12-25T02:41:27.207Z,4.8
2017-12-25T02:51:27.800Z,4.7
2017-12-25T03:01:27.289Z,4.7
2017-12-25T03:11:32.078Z,4.3
2017-12-25T03:21:33.254Z,3.9
2017-12-25T03:31:32.072Z,3.6
2017-12-25T03:41:27.024Z,3.7
2017-12-25T03:51:32.328Z,3.8
2017-12-25T04:01:29.936Z,3.3
2017-12-25T04:11:28.338Z,3.3
2017-12-25T04:21:30.131Z,2.9
2017-12-25T04:31:32.654Z,4.4
2017-12-25T04:41:27.190Z,4.0
2017-12-25T04:51:25.888Z,4.4
2017-12-25T05:01:32.017Z,3.4
2017-12-25T05:11:32.282Z,2.8
2017-12-25T05:21:27.570Z,3.0
2017-12-25T05:31:25.646Z,3.2
2017-12-25T05:41:31.679Z,3.3
2017-12-25T05:51:32.276Z,2.9
2017-12-25T06:01:32.003Z,3.5
2017-12-25T06:11:33.082Z,2.9
2017-12-25T06:21:33.889Z,3.1
2017-12-25T06:31:33.629Z,3.1
2017-12-25T06:41:28.687Z,3.3
2017-12-25T06:51:26.942Z,3.4
2017-12-25T07:01:31.807Z,3.1
2017-12-25T07:11:27.262Z,4.2
2017-12-25T07:21:31.242Z,4.1
2017-12-25T07:31:26.893Z,4.6
2017-12-25T07:41:31.737Z,4.7
2017-12-25T07:51:27.636Z,4.4
2017-12-25T08:01:32.912Z,4.0
2017-12-25T08:11:33.241Z,3.8
2017-12-25T08:21:31.393Z,4.4
2017-12-25T08:31:31.864Z,4.7
2017-12-25T08:41:27.284Z,4.4
2017-12-25T08:51:32.882Z,4.0
2017-12-25T09:01:32.214Z,4.8
2017-12-25T09:11:28.747Z,4.9
2017-12-25T09:21:29.732Z,4.9
2017-12-25T09:31:33.125Z,6.0
2017-12-25T09:41:32.429Z,6.0
2017-12-25T09:51:31.849Z,5.6
2017-12-25T10:01:26.029Z,5.2
2017-12-25T10:11:27.559Z,5.3
2017-12-25T10:21:26.752Z,5.7
2017-12-25T10:31:27.099Z,6.2
2017-12-25T10:41:26.901Z,6.4
2017-12-25T10:51:27.463Z,7.3
2017-12-25T11:01:25.966Z,6.8
2017-12-25T11:11:27.061Z,6.2
2017-12-25T11:21:26.539Z,7.7
2017-12-25T11:31:26.380Z,6.3
2017-12-25T11:41:26.275Z,7.1
2017-12-25T11:51:26.295Z,6.7
2017-12-25T12:01:25.602Z,7.2
2017-12-25T12:11:28.342Z,6.5
2017-12-25T12:21:26.365Z,6.9
2017-12-25T12:31:27.965Z,7.3
2017-12-25T12:41:28.022Z,7.1
2017-12-25T12:51:27.561Z,6.4
2017-12-25T13:01:26.303Z,6.3
2017-12-25T13:11:26.160Z,6.1
2017-12-25T13:21:26.157Z,6.0
2017-12-25T13:31:27.124Z,6.7
2017-12-25T13:41:26.311Z,6.3
2017-12-25T13:51:26.708Z,6.4
2017-12-25T14:01:25.901Z,5.9
2017-12-25T14:11:28.579Z,7.3
2017-12-25T14:21:27.056Z,7.1
2017-12-25T14:31:27.115Z,6.8
2017-12-25T14:41:26.812Z,6.3
2017-12-25T14:51:27.360Z,5.6
2017-12-25T15:01:27.505Z,6.7
2017-12-25T15:11:26.945Z,7.0
2017-12-25T15:21:26.707Z,7.5
2017-12-25T15:31:26.289Z,7.6
2017-12-25T15:41:25.779Z,7.0
2017-12-25T15:51:27.372Z,9.1
2017-12-25T16:01:27.320Z,8.5
2017-12-25T16:11:27.046Z,11.2
2017-12-25T16:21:26.071Z,11.6
2017-12-25T16:31:27.018Z,13.4
2017-12-25T16:41:26.570Z,16.4
2017-12-25T16:51:26.543Z,12.1
2017-12-25T17:01:26.462Z,14.2
2017-12-25T17:11:25.692Z,19.4
2017-12-25T17:21:27.344Z,15.1
2017-12-25T17:31:26.036Z,14.8
2017-12-25T17:41:26.790Z,17.7
2017-12-25T17:51:26.402Z,17.2
2017-12-25T18:01:25.834Z,18.2
2017-12-25T18:11:26.360Z,19.3
2017-12-25T18:21:26.153Z,26.0
2017-12-25T18:31:27.147Z,23.8
2017-12-25T18:41:26.757Z,34.0
2017-12-25T18:51:27.203Z,44.1
2017-12-25T19:01:27.907Z,48.6
2017-12-25T19:11:27.515Z,142.0
2017-12-25T19:21:26.017Z,53.6
2017-12-25T19:31:26.906Z,54.8
2017-12-25T19:41:28.152Z,91.6
2017-12-25T19:51:27.639Z,69.7
2017-12-25T20:01:26.155Z,52.7
2017-12-25T20:11:29.403Z,53.2
2017-12-25T20:21:26.013Z,54.5
2017-12-25T20:31:30.030Z,54.8
2017-12-25T20:41:27.409Z,53.1
2017-12-25T20:51:28.008Z,54.1
2017-12-25T21:01:27.033Z,54.2
2017-12-25T21:11:26.800Z,52.9
2017-12-25T21:21:28.270Z,56.8
2017-12-25T21:31:29.574Z,59.1
2017-12-25T21:41:29.045Z,57.1
2017-12-25T21:51:26.850Z,58.9
2017-12-25T22:01:29.797Z,58.2
2017-12-25T22:11:25.923Z,56.6
2017-12-25T22:21:27.508Z,58.8
2017-12-25T22:31:28.724Z,57.6
2017-12-25T22:41:27.923Z,61.8
2017-12-25T22:51:26.711Z,93.4
2017-12-25T23:01:28.770Z,74.5
2017-12-25T23:11:26.749Z,76.9
2017-12-25T23:21:26.542Z,71.4
2017-12-25T23:31:25.710Z,82.0
2017-12-25T23:41:26.964Z,83.9
2017-12-25T23:51:25.734Z,75.6
